createdAt,value
2023-03-03T00:01:43.396Z,87.77
2023-03-03T00:04:11.153Z,87.78
2023-03-03T00:06:39.542Z,87.80
2023-03-03T00:09:07.398Z,87.82
2023-03-03T00:11:35.260Z,87.79
2023-03-03T00:14:03.127Z,87.86
2023-03-03T00:16:40.887Z,87.85
2023-03-03T00:19:20.401Z,87.87
2023-03-03T00:21:51.274Z,87.89
2023-03-03T00:24:36.813Z,87.86
2023-03-03T00:27:24.814Z,87.86
2023-03-03T00:30:00.102Z,87.87
2023-03-03T00:32:38.624Z,87.90
2023-03-03T00:35:30.485Z,87.88
2023-03-03T00:38:01.769Z,87.87
2023-03-03T00:40:38.523Z,87.91
2023-03-03T00:43:20.459Z,87.92
2023-03-03T00:45:53.498Z,87.86
2023-03-03T00:48:36.635Z,87.57
2023-03-03T00:51:23.011Z,87.55
2023-03-03T00:53:51.119Z,87.52
2023-03-03T00:56:20.086Z,87.55
2023-03-03T00:58:48.300Z,87.65
2023-03-03T07:02:31.524Z,89.57
2023-03-03T07:04:59.501Z,89.58
2023-03-03T07:07:27.333Z,89.75
2023-03-03T07:09:57.278Z,89.80
2023-03-03T07:12:30.552Z,89.77
2023-03-03T07:15:16.465Z,89.86
2023-03-03T07:17:50.901Z,89.64
2023-03-03T07:20:24.765Z,89.67
2023-03-03T07:22:52.549Z,89.70
2023-03-03T07:25:35.540Z,89.59
2023-03-03T07:28:29.506Z,89.56
2023-03-03T07:30:58.390Z,89.42
2023-03-03T07:33:29.125Z,89.54
2023-03-03T07:35:59.553Z,89.43
2023-03-03T07:38:47.123Z,89.36
2023-03-03T07:41:20.998Z,89.30
2023-03-03T07:43:55.155Z,89.22
2023-03-03T07:46:45.689Z,89.29
2023-03-03T07:49:37.825Z,89.27
2023-03-03T07:52:25.145Z,89.26
2023-03-03T07:54:55.467Z,89.29
2023-03-03T07:57:37.090Z,89.31
2023-03-03T08:00:17.064Z,89.43
2023-03-03T08:02:52.201Z,89.47
2023-03-03T08:05:31.592Z,89.48
2023-03-03T08:08:33.853Z,89.55
2023-03-03T08:11:03.109Z,89.56
2023-03-03T08:13:42.822Z,89.62
2023-03-03T08:16:10.701Z,89.60
2023-03-03T08:18:40.365Z,89.62
2023-03-03T08:21:16.688Z,89.60
2023-03-03T08:23:44.905Z,89.58
2023-03-03T08:26:14.122Z,89.43
2023-03-03T08:28:41.854Z,89.38
2023-03-03T08:31:20.298Z,89.34
2023-03-03T08:33:55.744Z,89.32
2023-03-03T08:36:23.482Z,89.26
2023-03-03T08:38:51.321Z,89.21
2023-03-03T08:41:19.098Z,89.20
2023-03-03T08:43:47.021Z,89.16
2023-03-03T08:46:16.605Z,89.08
2023-03-03T08:48:45.097Z,89.07
2023-03-03T08:51:13.050Z,89.13
2023-03-03T08:53:40.819Z,89.12
2023-03-03T08:56:08.924Z,89.19
2023-03-03T08:58:36.869Z,89.20
2023-03-03T09:01:05.192Z,89.17
2023-03-03T09:03:33.266Z,89.17
2023-03-03T09:06:01.039Z,89.09
2023-03-03T09:08:28.844Z,89.00
2023-03-03T09:10:56.604Z,88.94
2023-03-03T09:13:24.392Z,88.84
2023-03-03T09:15:52.237Z,88.76
2023-03-03T09:18:22.932Z,88.74
2023-03-03T09:20:52.883Z,88.74
2023-03-03T09:23:30.335Z,88.79
2023-03-03T09:26:09.046Z,88.80
2023-03-03T09:28:37.901Z,88.78
2023-03-03T09:31:24.261Z,88.76
2023-03-03T09:33:55.228Z,88.69
2023-03-03T09:36:37.673Z,88.63
2023-03-03T09:39:25.659Z,88.53
2023-03-03T09:42:10.049Z,88.47
2023-03-03T09:45:08.810Z,88.37
2023-03-03T09:48:05.903Z,88.32
2023-03-03T09:50:59.775Z,88.30
2023-03-03T09:53:46.588Z,88.22
2023-03-03T09:56:25.608Z,88.17
2023-03-03T09:59:08.431Z,88.22
2023-03-03T10:02:00.155Z,88.23
2023-03-03T10:05:05.903Z,88.17
2023-03-03T10:07:45.125Z,88.16
2023-03-03T10:10:24.211Z,88.19
2023-03-03T10:13:00.663Z,88.20
2023-03-03T10:15:40.642Z,88.16
2023-03-03T10:18:12.960Z,88.06
2023-03-03T10:21:01.661Z,88.03
2023-03-03T10:24:05.005Z,87.94
2023-03-03T10:26:45.736Z,87.86
2023-03-03T10:29:41.080Z,87.85
2023-03-03T10:32:14.882Z,87.86
2023-03-03T10:35:12.856Z,87.88
2023-03-03T10:38:05.261Z,88.03
2023-03-03T10:40:51.409Z,87.87
2023-03-03T10:43:31.138Z,87.75
2023-03-03T10:46:13.199Z,87.90
2023-03-03T10:48:54.817Z,87.81
2023-03-03T10:51:34.068Z,87.73
2023-03-03T10:54:41.961Z,87.71
2023-03-03T10:57:24.864Z,87.61
2023-03-03T11:00:16.961Z,87.59
2023-03-03T11:03:18.617Z,87.57
2023-03-03T11:06:00.229Z,87.60
2023-03-03T11:09:10.001Z,87.61
2023-03-03T11:12:07.905Z,87.60
2023-03-03T11:14:49.247Z,87.48
2023-03-03T11:17:30.021Z,87.44
2023-03-03T11:20:10.064Z,87.33
2023-03-03T11:22:49.129Z,87.46
2023-03-03T11:25:26.301Z,87.49
2023-03-03T11:28:07.583Z,87.53
2023-03-03T11:30:38.523Z,87.61
2023-03-03T11:33:20.920Z,87.65
2023-03-03T11:36:06.098Z,87.71
2023-03-03T11:39:10.835Z,87.71
2023-03-03T11:41:43.606Z,87.81
2023-03-03T11:44:30.214Z,87.70
2023-03-03T11:47:03.363Z,87.53
2023-03-03T11:50:04.489Z,87.26
2023-03-03T11:53:03.137Z,87.26
2023-03-03T11:55:33.155Z,87.21
2023-03-03T11:58:20.629Z,87.20
2023-03-03T12:00:58.900Z,87.26
2023-03-03T12:03:26.723Z,87.28
2023-03-03T12:06:17.638Z,87.34
2023-03-03T12:09:03.754Z,87.35
2023-03-03T12:11:47.790Z,87.37
2023-03-03T12:14:22.107Z,87.43
2023-03-03T12:16:57.551Z,87.42
2023-03-03T12:19:52.169Z,87.42
2023-03-03T12:23:05.835Z,87.43
2023-03-03T12:25:47.985Z,87.41
2023-03-03T12:28:31.041Z,87.45
2023-03-03T12:31:23.130Z,87.43
2023-03-03T12:34:23.318Z,87.40
2023-03-03T12:37:07.475Z,87.46
2023-03-03T12:39:48.077Z,87.56
2023-03-03T12:42:22.239Z,87.56
2023-03-03T12:45:07.863Z,87.55
2023-03-03T12:47:39.767Z,87.56
2023-03-03T12:50:10.346Z,87.59
2023-03-03T12:52:52.632Z,87.55
2023-03-03T12:55:45.510Z,87.45
2023-03-03T12:58:31.722Z,87.46
2023-03-03T13:01:11.081Z,87.47
2023-03-03T13:03:55.002Z,87.43
2023-03-03T13:06:30.321Z,87.40
2023-03-03T13:09:16.632Z,87.41
2023-03-03T13:11:51.930Z,87.46
2023-03-03T13:14:43.523Z,87.39
2023-03-03T13:17:28.111Z,87.30
2023-03-03T13:20:06.143Z,87.27
2023-03-03T13:22:54.534Z,87.34
2023-03-03T13:25:40.373Z,87.37
2023-03-03T13:28:26.292Z,87.37
2023-03-03T13:31:02.317Z,87.34
2023-03-03T13:33:37.360Z,87.22
2023-03-03T13:36:14.896Z,87.23
2023-03-03T13:38:57.854Z,87.23
2023-03-03T13:41:48.294Z,87.18
2023-03-03T13:44:40.699Z,87.23
2023-03-03T13:47:43.522Z,87.36
2023-03-03T13:50:11.289Z,87.36
2023-03-03T13:52:51.764Z,87.34
2023-03-03T13:55:29.480Z,87.35
2023-03-03T13:58:04.953Z,87.45
2023-03-03T14:00:51.595Z,87.48
2023-03-03T14:03:41.187Z,87.47
2023-03-03T14:06:23.304Z,87.40
2023-03-03T14:08:54.000Z,87.32
2023-03-03T14:11:40.016Z,87.25
2023-03-03T14:14:45.657Z,87.21
2023-03-03T14:17:42.012Z,87.18
2023-03-03T14:20:30.336Z,87.16
2023-03-03T14:23:08.865Z,87.18
2023-03-03T14:26:14.910Z,87.26
2023-03-03T14:28:51.714Z,87.53
2023-03-03T14:31:43.584Z,87.54
2023-03-03T14:34:11.519Z,87.60
2023-03-03T14:36:43.654Z,87.64
2023-03-03T14:39:30.419Z,87.77
2023-03-03T14:41:59.429Z,87.93
2023-03-03T14:44:36.382Z,87.81
2023-03-03T14:47:10.193Z,87.83
2023-03-03T14:49:44.615Z,87.78
2023-03-03T14:52:15.655Z,87.73
2023-03-03T14:54:49.967Z,87.73
2023-03-03T14:57:23.920Z,87.74
2023-03-03T15:00:26.553Z,87.61
2023-03-03T15:03:18.073Z,87.58
2023-03-03T15:05:51.773Z,87.44
2023-03-03T15:08:35.514Z,87.37
2023-03-03T15:11:28.424Z,87.24
2023-03-03T15:14:14.187Z,87.04
2023-03-03T15:16:45.193Z,87.00
2023-03-03T15:19:28.212Z,87.00
2023-03-03T15:22:13.799Z,87.05
2023-03-03T15:24:52.412Z,86.99
2023-03-03T15:27:33.409Z,87.00
2023-03-03T15:30:19.327Z,87.00
2023-03-03T15:32:59.990Z,87.10
2023-03-03T15:35:37.895Z,87.13
2023-03-03T15:38:40.016Z,87.10
2023-03-03T15:41:47.244Z,87.11
2023-03-03T15:44:36.972Z,87.18
2023-03-03T15:47:16.414Z,87.12
2023-03-03T15:50:22.478Z,87.09
2023-03-03T15:53:05.262Z,87.08
2023-03-03T15:55:59.683Z,87.07
2023-03-03T15:59:04.243Z,87.04
2023-03-03T16:01:53.340Z,87.10
2023-03-03T16:04:26.057Z,87.20
2023-03-03T16:07:29.824Z,87.15
2023-03-03T16:10:24.549Z,87.12
2023-03-03T16:13:18.029Z,87.10
2023-03-03T16:16:13.534Z,87.11
2023-03-03T16:18:52.979Z,87.11
2023-03-03T16:21:42.034Z,87.10
2023-03-03T16:24:47.019Z,87.13
2023-03-03T16:27:27.013Z,87.13
2023-03-03T16:30:20.494Z,87.16
2023-03-03T16:32:57.005Z,87.19
2023-03-03T16:35:29.853Z,87.20
2023-03-03T16:38:01.809Z,87.18
2023-03-03T16:40:58.425Z,87.13
2023-03-03T16:43:26.681Z,87.06
2023-03-03T16:46:00.681Z,87.00
2023-03-03T16:48:57.806Z,87.00
2023-03-03T16:51:39.555Z,86.91
2023-03-03T16:54:38.275Z,86.75
2023-03-03T16:57:16.702Z,86.79
2023-03-03T17:00:03.003Z,86.81
2023-03-03T17:02:54.395Z,86.88
2023-03-03T17:05:36.370Z,86.91
2023-03-03T17:08:26.962Z,86.94
2023-03-03T17:10:57.592Z,86.82
2023-03-03T17:13:40.931Z,86.72
2023-03-03T17:16:18.050Z,86.67
2023-03-03T17:18:56.720Z,86.69
2023-03-03T17:21:35.134Z,86.68
2023-03-03T17:24:15.124Z,86.64
2023-03-03T17:27:12.441Z,86.58
2023-03-03T17:29:46.357Z,86.45
2023-03-03T17:32:14.304Z,86.28
2023-03-03T17:34:57.442Z,86.23
2023-03-03T17:37:43.646Z,86.20
2023-03-03T17:40:47.455Z,86.15
2023-03-03T17:43:22.042Z,86.24
2023-03-03T17:45:55.097Z,86.25
2023-03-03T17:48:41.772Z,86.39
2023-03-03T17:51:36.255Z,86.42
2023-03-03T17:54:38.040Z,86.39
2023-03-03T17:57:11.939Z,86.28
2023-03-03T17:59:39.694Z,86.25
2023-03-03T18:02:45.268Z,86.25
2023-03-03T18:05:22.324Z,86.18
2023-03-03T18:08:21.310Z,86.11
2023-03-03T18:11:16.054Z,86.06
2023-03-03T18:14:19.302Z,86.03
2023-03-03T18:17:13.179Z,86.02
2023-03-03T18:20:02.679Z,86.10
2023-03-03T18:22:51.405Z,86.12
2023-03-03T18:25:44.867Z,86.09
2023-03-03T18:28:23.695Z,86.07
2023-03-03T18:30:55.529Z,86.00
2023-03-03T18:33:55.568Z,86.00
2023-03-03T18:36:26.350Z,86.02
2023-03-03T18:38:56.528Z,85.99
2023-03-03T18:41:30.236Z,85.97
2023-03-03T18:44:01.331Z,85.76
2023-03-03T18:46:29.071Z,85.71
2023-03-03T18:48:59.588Z,85.23
2023-03-03T18:51:39.652Z,85.23
2023-03-03T18:54:14.334Z,85.30
2023-03-03T18:56:46.971Z,85.35
2023-03-03T18:59:36.993Z,85.32
2023-03-03T19:02:14.484Z,85.15
2023-03-03T19:05:05.946Z,85.19
2023-03-03T19:07:50.209Z,85.17
2023-03-03T19:10:21.555Z,84.85
2023-03-03T19:12:51.975Z,84.85
2023-03-03T19:15:35.995Z,84.90
2023-03-03T19:18:24.004Z,84.84
2023-03-03T19:20:57.024Z,84.53
2023-03-03T19:23:50.711Z,84.46
2023-03-03T19:26:24.859Z,84.55
2023-03-03T19:29:13.055Z,84.50
2023-03-03T19:31:53.001Z,84.51
2023-03-03T19:34:38.793Z,84.39
2023-03-03T19:37:34.611Z,84.41
2023-03-03T19:40:16.603Z,84.48
2023-03-03T19:43:03.214Z,84.51
2023-03-03T19:45:31.083Z,84.57
2023-03-03T19:48:34.063Z,84.64
2023-03-03T19:51:20.166Z,84.76
2023-03-03T19:53:57.647Z,84.73
2023-03-03T19:56:47.528Z,84.61
2023-03-03T19:59:18.367Z,84.22
2023-03-03T20:02:13.876Z,84.24
2023-03-03T20:05:24.039Z,84.15
2023-03-03T20:08:10.638Z,84.11
2023-03-03T20:11:04.617Z,84.14
2023-03-03T20:13:35.554Z,84.19
2023-03-03T20:16:24.317Z,84.19
2023-03-03T20:19:15.941Z,84.18
2023-03-03T20:21:59.297Z,84.04
2023-03-03T20:24:43.315Z,84.05
2023-03-03T20:27:11.186Z,84.00
2023-03-03T20:29:50.608Z,84.02
2023-03-03T20:32:30.433Z,84.03
2023-03-03T20:35:17.590Z,84.08
2023-03-03T20:37:54.489Z,84.12
2023-03-03T20:40:34.294Z,84.17
2023-03-03T20:43:20.996Z,84.07
2023-03-03T20:46:03.832Z,84.06
2023-03-03T20:49:16.551Z,84.09
2023-03-03T20:51:59.150Z,84.04
2023-03-03T20:54:41.689Z,84.08
2023-03-03T20:57:19.056Z,84.17
2023-03-03T21:00:00.761Z,84.17
2023-03-03T21:02:40.888Z,84.22
2023-03-03T21:05:16.640Z,84.23
2023-03-03T21:08:13.598Z,84.27
2023-03-03T21:10:42.648Z,84.30
2023-03-03T21:13:31.130Z,84.25
2023-03-03T21:16:06.145Z,84.26
2023-03-03T21:18:34.336Z,84.24
2023-03-03T21:21:02.938Z,84.16
2023-03-03T21:23:30.793Z,84.09
2023-03-03T21:25:58.857Z,84.11
2023-03-03T21:28:30.613Z,84.10
2023-03-03T21:31:11.690Z,84.08
2023-03-03T21:33:50.642Z,84.08
2023-03-03T21:36:38.719Z,84.10
2023-03-03T21:39:19.827Z,84.13
2023-03-03T21:42:05.553Z,84.21
2023-03-03T21:44:41.205Z,84.26
2023-03-03T21:47:15.033Z,84.27
2023-03-03T21:49:45.181Z,84.10
2023-03-03T21:52:16.493Z,84.19
2023-03-03T21:54:50.184Z,84.22
2023-03-03T21:57:18.098Z,84.20
2023-03-03T21:59:46.484Z,84.27
2023-03-03T22:02:14.313Z,84.35
2023-03-03T22:04:42.454Z,84.42
2023-03-03T22:07:10.584Z,84.44
2023-03-03T22:09:38.827Z,84.42
2023-03-03T22:12:07.465Z,84.37
2023-03-03T22:14:35.645Z,84.36
2023-03-03T22:17:03.622Z,84.39
2023-03-03T22:19:31.552Z,84.42
2023-03-03T22:21:59.541Z,84.41
2023-03-03T22:24:27.301Z,84.44
2023-03-03T22:26:55.364Z,84.45
2023-03-03T22:29:23.440Z,84.44
2023-03-03T22:31:51.733Z,84.43
2023-03-03T22:34:20.091Z,84.47
2023-03-03T22:36:47.857Z,84.47
2023-03-03T22:39:15.724Z,84.47
2023-03-03T22:41:43.490Z,84.48
2023-03-03T22:44:11.268Z,84.47
2023-03-03T22:46:39.298Z,84.43
2023-03-03T22:49:07.191Z,84.37
2023-03-03T22:51:34.949Z,84.27
2023-03-03T22:54:02.819Z,84.19
2023-03-03T22:56:30.685Z,84.03
2023-03-03T22:58:58.387Z,83.95
2023-03-03T23:01:26.209Z,83.99
2023-03-03T23:03:54.073Z,83.93
2023-03-03T23:06:22.043Z,83.84
2023-03-03T23:08:49.906Z,83.73
2023-03-03T23:11:17.661Z,83.65
2023-03-03T23:13:45.528Z,83.58
2023-03-03T23:16:13.325Z,83.44
2023-03-03T23:18:41.220Z,83.31
2023-03-03T23:21:09.020Z,83.33
2023-03-03T23:23:37.502Z,83.45
2023-03-03T23:26:05.476Z,83.56
2023-03-03T23:28:33.338Z,83.58
2023-03-03T23:31:01.156Z,83.56
2023-03-03T23:33:29.066Z,83.54
2023-03-03T23:35:57.012Z,83.59
2023-03-03T23:38:25.123Z,83.56
2023-03-03T23:40:53.499Z,83.63
2023-03-03T23:43:21.353Z,83.69
2023-03-03T23:45:49.217Z,83.66
2023-03-03T23:48:17.081Z,83.63
2023-03-03T23:50:44.858Z,83.63
2023-03-03T23:53:12.640Z,83.63
2023-03-03T23:55:40.368Z,83.64
2023-03-03T23:58:08.146Z,83.63
